METAR Reports From Nearby Airports

 

KLUD - Decatur, Texas, USA
Distance from Wildwood: WsPdWs 5mi, 8km
Aktualizacja: Feb 17, 2020 10:15pm
Bezchmurnie
Bezchmurnie
 Wiatr z PnPnZd
Wiatr: PnPnZd 6 mph , 9 km/h
Temperatura: 57°F , 14°C
Punkt Rosy: 48°F , 9°C
Wilgotność: 72%
Ciśnienie: 29.86 inHg , 1011.2 hPa
Clouds: Bezchmurnie
Visibility: 10 miles , 16 km
2020/02/18 04:15 KLUD 180415Z AUTO 03005KT 10SM CLR 14/09 A2986 RMK AO2 T01360093
KXBP - Bridgeport, Texas, USA
Distance from Wildwood: ZdPdZa 11mi, 18km
Aktualizacja: Feb 17, 2020 10:15pm
Bezchmurnie
Bezchmurnie
 Wiatr z calm
Wiatr: Cisza
Temperatura: 54°F , 12°C
Punkt Rosy: 48°F , 9°C
Wilgotność: 82%
Ciśnienie: 29.88 inHg , 1011.9 hPa
Clouds: Bezchmurnie
Visibility: 10 miles , 16 km
2020/02/18 04:15 KXBP 180415Z AUTO 00000KT 10SM CLR 12/09 A2988 RMK AO2 T01200087
 
K0F2 - Bowie, Texas, USA
Distance from Wildwood: PnPnZd 24mi, 39km
Aktualizacja: Feb 17, 2020 10:15pm
Bezchmurnie
Bezchmurnie
 Wiatr z PnPnZd
Wiatr: PnPnZd 6 mph , 9 km/h
Temperatura: 57°F , 14°C
Punkt Rosy: 54°F , 12°C
Wilgotność: 88%
Ciśnienie: 29.87 inHg , 1011.5 hPa
Clouds: Bezchmurnie
Visibility: 10 miles , 16 km
2020/02/18 04:15 K0F2 180415Z AUTO 03005KT 10SM CLR 14/12 A2987 RMK AO2 T01430115
KDTO - Denton, Texas, USA
Distance from Wildwood: Ws 27mi, 44km
Aktualizacja: Feb 17, 2020 9:53pm
Bezchmurnie
Bezchmurnie
 Wiatr z Pn
Wiatr: Pn 6 mph , 9 km/h
Temperatura: 54°F , 12°C
Punkt Rosy: 48°F , 9°C
Wilgotność: 82%
Ciśnienie: 29.85 inHg , 1010.8 hPa
Clouds: Bezchmurnie
Visibility: 10 miles , 16 km
2020/02/18 03:53 KDTO 180353Z AUTO 36005KT 10SM CLR 12/09 A2985 RMK AO2 SLP104 T01220089
 
KAFW - Ft Worth/Allianc, Texas, USA
Distance from Wildwood: PdWs 29mi, 46km
Aktualizacja: Feb 17, 2020 9:53pm
Mostly Cloudy
Mostly Cloudy
 Wiatr z PnPnZd
Wiatr: PnPnZd 6 mph , 9 km/h
Temperatura: 57°F , 14°C
Punkt Rosy: 46°F , 8°C
Wilgotność: 67%
Ciśnienie: 29.84 inHg , 1010.5 hPa
Clouds: Mostly Cloudy
Visibility: 10 miles , 16 km
Cloud details: Few Clouds 3000 ft
Mostly Cloudy 25000 ft
2020/02/18 03:53 KAFW 180353Z 33005KT 10SM FEW030 BKN250 14/08 A2984 RMK AO2 SLP101 T01390083
KFTW - Fort Worth, Texas, USA
Distance from Wildwood: PdPdWs 34mi, 55km
Aktualizacja: Feb 17, 2020 9:53pm
Bezchmurnie
Bezchmurnie
 Wiatr z Pn
Wiatr: Pn 6 mph , 9 km/h
Temperatura: 57°F , 14°C
Punkt Rosy: 48°F , 9°C
Wilgotność: 72%
Ciśnienie: 29.84 inHg , 1010.5 hPa
Clouds: Bezchmurnie
Visibility: 10 miles , 16 km
2020/02/18 03:53 KFTW 180353Z 35005KT 10SM CLR 14/09 A2984 RMK AO2 SLP099 T01390089 $
 
KNFW - Fort Worth Nas, Texas, USA
Distance from Wildwood: PdPdWs 36mi, 58km
Aktualizacja: Feb 17, 2020 9:52pm
Bezchmurnie
Bezchmurnie
 Wiatr z PnPnZd
Wiatr: PnPnZd 7 mph , 11 km/h
Temperatura: 73°F , 23°C
Punkt Rosy: 48°F , 9°C
Wilgotność: 41%
Ciśnienie: 29.84 inHg , 1010.5 hPa
Clouds: Bezchmurnie
2020/02/18 03:52 KNFW 180352Z AUTO 34006KT CLR 23/09 A2984 RMK AO2 SLP090 T02330089 VISNO N $
KGLE - Gainesville, Texas, USA
Distance from Wildwood: PnWs 38mi, 61km
Aktualizacja: Feb 17, 2020 10:15pm
Bezchmurnie
Bezchmurnie
 Wiatr z Pn
Wiatr: Pn 10 mph , 17 km/h
Temperatura: 55°F , 13°C
Punkt Rosy: 50°F , 10°C
Wilgotność: 82%
Ciśnienie: 29.88 inHg , 1011.9 hPa
Clouds: Bezchmurnie
Visibility: 10 miles , 16 km
2020/02/18 04:15 KGLE 180415Z AUTO 01009KT 10SM CLR 13/10 A2988 RMK AO2 T01300097
 
KMWL - Mineral Wells, Texas, USA
Distance from Wildwood: PdZd 41mi, 65km
Aktualizacja: Feb 17, 2020 9:53pm
Bezchmurnie
Bezchmurnie
 Wiatr z PnPnZd
Wiatr: PnPnZd 5 mph , 7 km/h
Temperatura: 54°F , 12°C
Punkt Rosy: 46°F , 8°C
Wilgotność: 77%
Ciśnienie: 29.84 inHg , 1010.5 hPa
Clouds: Bezchmurnie
Visibility: 10 miles , 16 km
2020/02/18 03:53 KMWL 180353Z AUTO 33004KT 10SM CLR 12/08 A2984 RMK AO2 SLP099 T01170083
KDFW - Dallas/Ft Worth, Texas, USA
Distance from Wildwood: WsPdWs 45mi, 73km
Aktualizacja: Feb 17, 2020 9:53pm
Partly Cloudy
Partly Cloudy
 Wiatr z Pn
Wiatr: Pn 6 mph , 9 km/h
Temperatura: 61°F , 16°C
Punkt Rosy: 48°F , 9°C
Wilgotność: 63%
Ciśnienie: 29.82 inHg , 1009.8 hPa
Clouds: Partly Cloudy
Visibility: 10 miles , 16 km
Cloud details: Few Clouds 25000 ft
Partly Cloudy 30000 ft
2020/02/18 03:53 KDFW 180353Z 36005KT 10SM FEW250 SCT300 16/09 A2982 RMK AO2 SLP092 T01560089 $